Nearby METAR Data
EGNX - East Midlands, United Kingdom
Distance from station: SSE 24mi, 39km
Updated: 26/05/2018 08:50
Mostly Cloudy
Mostly Cloudy
 Wind from NNE
Wind: NNE 8 mph , 13 km/h
Temperature: 13°C
Dew Point: 12°C
Humidity: 94%
Barometer: 1022 hPa
Clouds: Mostly Cloudy
Visibility: 4 miles , 7 km
Cloud details: Mostly Cloudy 244 m
2018/05/26 07:50 EGNX 260750Z 03007KT 360V090 7000 BKN008 13/12 Q1022
EGCN - Doncaster Sheffi, United Kingdom
Distance from station: NE 31mi, 49km
Updated: 26/05/2018 08:50
Clear
Clear
 Wind from N
Wind: N 10 mph , 17 km/h
Temperature: 15°C
Dew Point: 12°C
Humidity: 82%
Barometer: 1024 hPa
Summary: Clear
Visibility: greater than 7 miles , 10 km
2018/05/26 07:50 EGCN 260750Z 01009KT CAVOK 15/12 Q1024
 
EGXS - Swinderby Raf, United Kingdom
Distance from station: E 33mi, 54km
Updated: 26/05/2018 07:50
Few Clouds
Few Clouds
 Wind from NNE
Wind: NNE 8 mph , 13 km/h
Temperature: 12°C
Dew Point: 10°C
Humidity: 88%
Barometer: 1022 hPa
Clouds: Few Clouds
Visibility: 6 miles , 10 km
Cloud details: Few Clouds 4877 m
2018/05/26 06:50 EGXS 260650Z AUTO 03007KT 9999 // FEW160/// 12/10 Q1022
EGCC - Manchester Intl, United Kingdom
Distance from station: WNW 35mi, 56km
Updated: 26/05/2018 08:50
Clear
Clear
 Wind from NE
Wind: NE 10 mph , 17 km/h
Temperature: 16°C
Dew Point: 11°C
Humidity: 72%
Barometer: 1023 hPa
Clouds: Clear
Visibility: 6 miles , 10 km
2018/05/26 07:50 EGCC 260750Z AUTO 05009KT 9999 NCD 16/11 Q1023
 
EGXP - Scampton Raf, United Kingdom
Distance from station: ENE 40mi, 65km
Updated: 26/05/2018 07:50
Few Clouds
Few Clouds
 Wind from NNE
Wind: NNE 9 mph , 15 km/h
Temperature: 12°C
Dew Point: 11°C
Humidity: 94%
Barometer: 1022 hPa
Clouds: Few Clouds
Visibility: 6 miles , 10 km
Cloud details: Few Clouds 4572 m
2018/05/26 06:50 EGXP 260650Z AUTO 03008KT 9999 // FEW150/// 12/11 Q1022
EGXW - Waddington Raf, United Kingdom
Distance from station: E 40mi, 65km
Updated: 26/05/2018 08:50
Mostly Cloudy
Mostly Cloudy
 Wind from N
Wind: N 9 mph , 15 km/h
Temperature: 14°C
Dew Point: 11°C
Humidity: 82%
Barometer: 1022 hPa
Clouds: Mostly Cloudy
Visibility: 6 miles , 10 km
Cloud details: Partly Cloudy 1372 m
Mostly Cloudy 4572 m
2018/05/26 07:50 EGXW 260750Z 36008KT 9999 SCT045 BKN150 14/11 Q1022 BLU